x

Buoy A01 - Mass. Bay/stellwagen (44029) Wave Buoy

5:04 - Wed 7th Dec 2016 All times are EST. -5 hours from GMT.

  • Sig Wave height 1.3ft
  • Peak Period 9s
  • Wind
    9mph, 11mph gusts
  • Sea Temp 48°f
  • Ar Temp 43°f
  • Sea Pressure 1014.9mb
  • Buoy A01 - Mass. Bay/stellwagen
  • Buoy A01 - Mass. Bay/stellwagen

More Historic Weather Station data

Upgrade to MSW Pro to gain access to the past 30 days of data for over 8000 Wavebouys and Weather Stations around the globe.

Join Pro

Comparision Forecast

View Surf forecast
   
Qua 12/07 5:04 1.3ft 9s 9 11 mph 1014.9mb 48f 43f
4:04 1.3ft 10s 9 13 mph 1014.2mb 48f 42f
3:04 1.3ft 4s 4 7 mph 1013.5mb 48f 42f
2:04 1.6ft 4s 7
mph
1013.3mb 49f 42f
1:04 2ft 4s 7 9 mph 1013.7mb 49f 41f
12:04 2.5ft 4s 9 11 mph 1014.1mb 49f 41f
11:04 2.5ft 4s 11 13 mph 1014.9mb 49f 40f
10:04 2.5ft 4s 11 13 mph 1015mb 49f 40f
9:04 2.5ft 9s 2 4 mph 1014.9mb 49f 42f
8:04 2.5ft 10s 9 11 mph 1014.4mb 49f 42f
7:04 2.5ft 4s 13 16 mph 1013.4mb 49f 42f
6:04 2.5ft 4s 13 18 mph 1013.2mb 49f 42f
5:04 2.5ft 10s 16 18 mph 1012.7mb 49f 43f
4:04 2ft 3s 18 20 mph 1012.6mb 49f 42f
3:04 2.5ft 10s 13 18 mph 1013.5mb 49f 42f
2:04 2ft 5s 13 16 mph 1013.9mb 49f 42f
1:04  -   -  13 18 mph 1013.8mb 48f 42f
12:04 2ft 5s 13 16 mph 1014.6mb 48f 42f
Ter 12/06 11:04 2.5ft 5s 11 16 mph 1015.5mb 48f 42f
10:04 2ft 10s 11 13 mph 1016mb 49f 42f
9:04 2.5ft 11s 11 13 mph 1016.5mb 49f 42f
7:04 2.5ft 6s 13 16 mph 1016.2mb 49f 42f
6:04 1.3ft 11s 13 16 mph 1016.1mb 49f 43f
5:04 1.6ft 11s 7 9 mph 1016mb 49f 42f
4:04 1.3ft 10s 7 9 mph 1016.8mb 49f 41f
3:04 1.3ft 8s 7 9 mph 1017.1mb 49f 41f
2:04 1.6ft 10s 9 11 mph 1017.6mb 49f 42f
1:04 2ft 10s 9 11 mph 1017.7mb 48f 42f
12:04 2.5ft 3s 11 13 mph 1018.4mb 48f 42f
11:04 2ft 3s 13 18 mph 1019mb 48f 41f
10:04 2.5ft 3s 18 22 mph 1019.2mb 49f 40f
9:04 2.5ft 3s 18 20 mph 1019.2mb 48f 39f
8:04 2.5ft 3s 16 18 mph 1019mb 48f 40f
7:04 2.5ft 3s 20 22 mph 1018.4mb 48f 40f
6:04 2.5ft 3s 20 25 mph 1018.1mb 49f 40f
5:04 2ft 3s 22 27 mph 1017.8mb 49f 40f
4:04 1.3ft 10s 18 25 mph 1017.8mb 49f 40f
3:04 1.3ft 3s 18 20 mph 1017.3mb 49f 40f
2:04 1.3ft 3s 18 22 mph 1016.7mb 48f 40f
1:04 1.6ft 10s 20 22 mph 1015.6mb 48f 41f
12:04 2ft 10s 20 25 mph 1014.8mb 48f 41f
Seg 12/05 11:04 4ft 4s 25 27 mph 1014.3mb 48f 42f
10:04 3.5ft 4s 25 29 mph 1014mb 49f 42f
9:04 4ft 3s 25 29 mph 1013.5mb 49f 42f
8:04 3.5ft 3s 25 29 mph 1012.7mb 49f 41f
7:04 3ft 3s 22 27 mph 1012.9mb 49f 41f
6:04 2.5ft 10s 16 20 mph 1013mb 49f 41f
5:04 2.5ft 4s 18 20 mph 1012.9mb 49f 41f
4:04 3.5ft 4s 16 18 mph 1012.4mb 49f 42f
3:04 3.5ft 4s 18 22 mph 1012.1mb 49f 44f
2:04 2.5ft 5s 20 25 mph 1011.8mb 49f 43f
1:04 2.5ft 4s 20 22 mph 1012.8mb 49f 41f
12:04 2ft 4s 18 22 mph 1013.7mb 49f 41f
11:04 2ft 8s 18 22 mph 1015mb 49f 40f
10:04 2ft 8s 16 18 mph 1016.5mb 49f 40f
9:04 2ft 8s 9 13 mph 1017mb 49f 40f
8:04 2ft 8s 4 7 mph 1017.8mb 49f 37f
7:04 2ft 5s 13 22 mph 1017.9mb 49f 41f
6:04 2ft 6s 7 9 mph 1017.9mb 49f 39f
5:04 2ft 5s 11 13 mph 1019.3mb 49f 39f
4:04 2ft 5s 4 7 mph 1018.9mb 49f 40f
3:04 2.5ft 5s 7 9 mph 1019.2mb 49f 40f
2:04 2ft 5s 7 11 mph 1019.5mb 49f 39f
1:04 2ft 5s 7 9 mph 1020.2mb 49f 39f
12:04 2.5ft 5s 4 9 mph 1020.5mb 49f 39f
Dom 12/04 11:04 2ft 5s 11 13 mph 1020.7mb 49f 39f
10:04 2.5ft 6s 13 16 mph 1021.1mb 49f 38f
9:04 2ft 6s 13 16 mph 1022.2mb 49f 37f
8:04 2.5ft 6s 13 18 mph 1022.5mb 49f 38f
7:04 2.5ft 6s 16 18 mph 1021.9mb 50f 39f
6:04 2ft 6s 16 20 mph 1021.1mb 50f 40f
5:04 2ft 6s 16 18 mph 1021mb 50f 41f
4:04 2.5ft 7s 13 18 mph 1020.9mb 50f 41f
3:04 2.5ft 6s 13 18 mph 1020.3mb 50f 42f
2:04 2.5ft 6s 13 18 mph 1020.3mb 50f 41f
1:04 2ft 6s 13 18 mph 1020mb 50f 40f
12:04 2.5ft 6s 13 18 mph 1020.4mb 50f 39f
11:04 3.5ft 5s 16 22 mph 1020.5mb 49f 37f
10:04 3ft 5s 18 20 mph 1021.3mb 50f 37f
9:04 3ft 5s 16 22 mph 1020.9mb 50f 36f
8:04 2.5ft 6s 20 25 mph 1020.7mb 50f 36f
7:04 3ft 6s 20 25 mph 1020mb 50f 36f
6:04 3ft 6s 20 25 mph 1019.5mb 50f 37f
5:04 3.5ft 6s 20 29 mph 1019.3mb 50f 37f
4:04 3.5ft 5s 22 29 mph 1018.8mb 50f 37f
3:04 3.5ft 6s 20 25 mph 1018.2mb 50f 37f
2:04 3.5ft 6s 18 25 mph 1018.1mb 50f 38f
1:04 3.5ft 5s 20 25 mph 1017mb 50f 39f